createdAt,value
2023-08-11T00:01:19.059Z,100744.56
2023-08-11T00:06:21.410Z,100730.59
2023-08-11T00:11:24.477Z,100748.13
2023-08-11T00:16:26.716Z,100729.19
2023-08-11T00:21:28.967Z,100751.69
2023-08-11T00:26:34.002Z,100719.06
2023-08-11T00:31:37.177Z,100704.81
2023-08-11T00:36:39.608Z,100722.91
2023-08-11T00:41:42.224Z,100718.22
2023-08-11T00:46:45.043Z,100694.94
2023-08-11T00:51:48.000Z,100692.47
2023-08-11T00:56:50.641Z,100673.25
2023-08-11T01:01:53.016Z,100703.44
2023-08-11T01:07:26.689Z,100710.81
2023-08-11T01:12:47.726Z,100698.22
2023-08-11T01:17:50.721Z,100716.31
2023-08-11T01:22:56.790Z,100714.66
2023-08-11T01:28:00.301Z,100730.84
2023-08-11T01:33:02.876Z,100715.22
2023-08-11T01:38:05.317Z,100711.66
2023-08-11T01:43:10.293Z,100694.66
2023-08-11T01:48:14.373Z,100685.84
2023-08-11T01:53:16.796Z,100689.16
2023-08-11T01:58:19.135Z,100709.13
2023-08-11T02:03:23.036Z,100695.38
2023-08-11T02:08:25.376Z,100686.91
2023-08-11T02:13:27.637Z,100705.88
2023-08-11T02:18:29.856Z,100712.19
2023-08-11T02:23:32.148Z,100708.56
2023-08-11T02:28:34.619Z,100714.03
2023-08-11T02:33:37.407Z,100720.06
2023-08-11T02:38:40.060Z,100736.22
2023-08-11T02:43:42.337Z,100724.44
2023-08-11T02:48:44.589Z,100743.50
2023-08-11T02:53:46.940Z,100718.88
2023-08-11T02:58:49.727Z,100748.53
2023-08-11T03:03:51.993Z,100735.13
2023-08-11T03:08:54.241Z,100744.19
2023-08-11T03:13:56.491Z,100727.47
2023-08-11T03:18:58.732Z,100728.25
2023-08-11T03:24:01.319Z,100723.31
2023-08-11T03:29:03.660Z,100721.66
2023-08-11T03:34:05.863Z,100760.59
2023-08-11T03:39:08.061Z,100767.19
2023-08-11T03:44:10.326Z,100754.00
2023-08-11T03:49:13.400Z,100743.22
2023-08-11T03:54:15.626Z,100771.75
2023-08-11T03:59:17.909Z,100774.91
2023-08-11T04:04:20.254Z,100774.13
2023-08-11T04:09:22.627Z,100778.56
2023-08-11T04:14:25.990Z,100772.59
2023-08-11T04:19:28.260Z,100794.81
2023-08-11T04:24:30.507Z,100781.91
2023-08-11T04:29:32.787Z,100772.25
2023-08-11T04:34:35.436Z,100774.72
2023-08-11T04:39:38.599Z,100785.66
2023-08-11T04:44:40.853Z,100796.59
2023-08-11T04:49:43.632Z,100830.44
2023-08-11T04:54:46.227Z,100784.31
2023-08-11T04:59:49.744Z,100816.50
2023-08-11T05:04:52.036Z,100796.13
2023-08-11T05:09:54.379Z,100830.19
2023-08-11T05:14:56.629Z,100831.75
2023-08-11T05:19:59.161Z,100849.03
2023-08-11T05:25:03.957Z,100854.59
2023-08-11T05:30:08.884Z,100848.56
2023-08-11T05:35:11.239Z,100853.78
2023-08-11T05:40:13.656Z,100836.22
2023-08-11T05:45:18.034Z,100849.91
2023-08-11T05:50:21.629Z,100862.81
2023-08-11T05:55:24.333Z,100857.09
2023-08-11T06:00:26.611Z,100857.63
2023-08-11T06:05:29.434Z,100828.84
2023-08-11T06:10:32.470Z,100850.63
2023-08-11T06:15:34.680Z,100877.22
2023-08-11T06:20:41.585Z,100880.00
2023-08-11T06:25:44.785Z,100845.72
2023-08-11T06:30:47.519Z,100886.91
2023-08-11T06:35:49.917Z,100847.66
2023-08-11T06:40:53.533Z,100855.06
2023-08-11T06:46:01.124Z,100874.06
2023-08-11T06:51:05.898Z,100880.38
2023-08-11T06:56:08.803Z,100870.19
2023-08-11T07:01:11.216Z,100875.41
2023-08-11T07:06:13.981Z,100867.09
2023-08-11T07:11:19.989Z,100855.47
2023-08-11T07:16:23.256Z,100834.63
2023-08-11T07:21:26.073Z,100882.25
2023-08-11T07:26:28.370Z,100849.38
2023-08-11T07:31:30.887Z,100855.72
2023-08-11T07:36:33.277Z,100871.09
2023-08-11T07:41:36.288Z,100877.91
2023-08-11T07:46:38.677Z,100866.91
2023-08-11T07:51:42.641Z,100860.25
2023-08-11T07:56:46.410Z,100853.88
2023-08-11T08:01:53.728Z,100853.22
2023-08-11T08:06:56.463Z,100863.59
2023-08-11T08:11:58.699Z,100853.41
2023-08-11T08:17:02.885Z,100866.72
2023-08-11T08:22:07.903Z,100858.34
2023-08-11T08:27:11.197Z,100878.72
2023-08-11T08:32:13.573Z,100873.69
2023-08-11T08:37:22.648Z,100841.34
2023-08-11T08:42:27.151Z,100865.88
2023-08-11T08:47:30.453Z,100871.03
2023-08-11T08:52:33.982Z,100847.56
2023-08-11T08:57:36.308Z,100838.75
2023-08-11T09:02:39.097Z,100858.53
2023-08-11T09:07:41.587Z,100830.59
2023-08-11T09:12:46.303Z,100859.50
2023-08-11T09:17:49.320Z,100845.69
2023-08-11T09:22:51.757Z,100840.97
2023-08-11T09:27:54.078Z,100840.28
2023-08-11T09:32:56.782Z,100831.22
2023-08-11T09:37:59.081Z,100826.50
2023-08-11T09:43:01.393Z,100848.09
2023-08-11T09:48:03.994Z,100831.06
2023-08-11T09:53:07.816Z,100818.94
2023-08-11T09:58:13.826Z,100826.16
2023-08-11T10:03:21.755Z,100826.34
2023-08-11T10:08:27.907Z,100837.88
2023-08-11T10:13:31.037Z,100821.53
2023-08-11T10:18:34.368Z,100807.69
2023-08-11T10:23:37.928Z,100808.69
2023-08-11T10:28:40.932Z,100805.00
2023-08-11T10:33:50.711Z,100820.88
2023-08-11T10:39:07.537Z,100796.31
2023-08-11T10:44:09.888Z,100787.75
2023-08-11T10:49:12.050Z,100810.75
2023-08-11T10:54:24.144Z,100792.28
2023-08-11T10:59:30.385Z,100804.13
2023-08-11T11:04:34.028Z,100807.53
2023-08-11T11:09:36.859Z,100801.16
2023-08-11T11:14:39.369Z,100784.66
2023-08-11T11:19:42.147Z,100791.31
2023-08-11T11:24:44.369Z,100741.06
2023-08-11T11:29:46.626Z,100763.56
2023-08-11T11:34:48.958Z,100773.34
2023-08-11T11:39:52.093Z,100751.31
2023-08-11T11:44:54.542Z,100747.72
2023-08-11T11:50:00.508Z,100744.38
2023-08-11T11:55:02.956Z,100751.50
2023-08-11T12:00:11.412Z,100758.25
2023-08-11T12:05:14.301Z,100751.31
2023-08-11T12:10:18.917Z,100716.91
2023-08-11T12:15:21.347Z,100737.09
2023-08-11T12:20:24.355Z,100734.59
2023-08-11T12:25:26.635Z,100722.19
2023-08-11T12:30:29.418Z,100691.63
2023-08-11T12:35:31.654Z,100720.66
2023-08-11T12:40:34.720Z,100711.63
2023-08-11T12:45:38.098Z,100703.53
2023-08-11T12:50:42.114Z,100721.34
2023-08-11T12:55:50.246Z,100701.13
2023-08-11T13:00:52.542Z,100705.41
2023-08-11T13:05:54.896Z,100683.06
2023-08-11T13:10:57.552Z,100673.81
2023-08-11T13:15:59.788Z,100686.59
2023-08-11T13:21:02.275Z,100663.28
2023-08-11T13:26:04.711Z,100675.25
2023-08-11T13:31:07.059Z,100679.19
2023-08-11T13:36:10.093Z,100660.78
2023-08-11T13:41:12.375Z,100682.38
2023-08-11T13:46:14.639Z,100665.28
2023-08-11T13:51:17.327Z,100689.13
2023-08-11T13:56:19.760Z,100661.66
2023-08-11T14:01:22.085Z,100674.47
2023-08-11T14:06:24.549Z,100645.22
2023-08-11T14:11:26.988Z,100666.53
2023-08-11T14:16:29.323Z,100668.19
2023-08-11T14:21:31.573Z,100667.66
2023-08-11T14:26:33.858Z,100674.13
2023-08-11T14:31:36.189Z,100682.72
2023-08-11T14:36:38.612Z,100683.75
2023-08-11T14:41:40.945Z,100655.53
2023-08-11T14:46:45.420Z,100647.22
2023-08-11T14:51:49.952Z,100669.94
2023-08-11T14:56:52.263Z,100667.59
2023-08-11T15:01:54.469Z,100670.16
2023-08-11T15:06:56.748Z,100675.63
2023-08-11T15:11:59.186Z,100656.03
2023-08-11T15:17:01.829Z,100609.78
2023-08-11T15:22:04.198Z,100700.63
2023-08-11T15:27:06.823Z,100658.31
2023-08-11T15:32:09.103Z,100683.53
2023-08-11T15:37:12.654Z,100687.09
2023-08-11T15:42:15.117Z,100666.47
2023-08-11T15:47:17.359Z,100658.25
2023-08-11T15:52:19.703Z,100691.81
2023-08-11T15:57:22.919Z,100706.50
2023-08-11T16:02:25.761Z,100680.75
2023-08-11T16:07:28.956Z,100694.19
2023-08-11T16:12:31.294Z,100707.75
2023-08-11T16:17:35.213Z,100717.88
2023-08-11T16:22:37.447Z,100701.25
2023-08-11T16:27:39.953Z,100656.16
2023-08-11T16:32:42.246Z,100693.44
2023-08-11T16:37:44.489Z,100731.09
2023-08-11T16:42:46.786Z,100707.66
2023-08-11T16:47:49.085Z,100711.66
2023-08-11T16:52:57.468Z,100708.06
2023-08-11T16:57:59.676Z,100755.72
2023-08-11T17:03:02.072Z,100749.53
2023-08-11T17:08:04.778Z,100668.41
2023-08-11T17:13:07.053Z,100716.28
2023-08-11T17:18:09.574Z,100728.22
2023-08-11T17:23:11.883Z,100721.78
2023-08-11T17:28:14.246Z,100714.00
2023-08-11T17:33:16.461Z,100758.31
2023-08-11T17:38:18.710Z,100731.53
2023-08-11T17:43:21.026Z,100763.88
2023-08-11T17:48:23.274Z,100740.66
2023-08-11T17:53:25.615Z,100764.09
2023-08-11T17:58:28.126Z,100762.97
2023-08-11T18:03:30.451Z,100774.13
2023-08-11T18:08:32.803Z,100769.13
2023-08-11T18:13:35.098Z,100774.03
2023-08-11T18:18:37.417Z,100794.97
2023-08-11T18:23:40.065Z,100807.75
2023-08-11T18:28:42.334Z,100792.88
2023-08-11T18:33:44.626Z,100799.03
2023-08-11T18:38:49.014Z,100818.34
2023-08-11T18:43:51.252Z,100817.19
2023-08-11T18:48:53.600Z,100807.72
2023-08-11T18:53:56.045Z,100823.16
2023-08-11T18:58:58.245Z,100806.22
2023-08-11T19:04:00.533Z,100848.72
2023-08-11T19:09:03.071Z,100818.09
2023-08-11T19:14:06.814Z,100847.44
2023-08-11T19:19:12.618Z,100816.69
2023-08-11T19:24:14.931Z,100794.63
2023-08-11T19:29:17.183Z,100827.19
2023-08-11T19:34:19.453Z,100830.13
2023-08-11T19:39:21.693Z,100811.81
2023-08-11T19:44:24.766Z,100825.31
2023-08-11T19:49:26.954Z,100859.84
2023-08-11T19:54:29.330Z,100835.75
2023-08-11T19:59:31.604Z,100846.75
2023-08-11T20:04:34.014Z,100850.50
2023-08-11T20:09:36.782Z,100822.06
2023-08-11T20:14:38.993Z,100826.16
2023-08-11T20:19:41.291Z,100831.16
2023-08-11T20:24:43.550Z,100834.22
2023-08-11T20:29:45.750Z,100852.88
2023-08-11T20:34:48.141Z,100826.03
2023-08-11T20:39:50.452Z,100781.72
2023-08-11T20:44:58.253Z,100831.19
2023-08-11T20:50:03.458Z,100832.50
2023-08-11T20:55:06.239Z,100857.44
2023-08-11T21:00:09.850Z,100853.28
2023-08-11T21:05:12.482Z,100802.91
2023-08-11T21:10:16.188Z,100828.47
2023-08-11T21:15:18.773Z,100800.06
2023-08-11T21:20:21.009Z,100798.94
2023-08-11T21:25:23.291Z,100834.88
2023-08-11T21:30:26.145Z,100774.13
2023-08-11T21:35:28.399Z,100816.91
2023-08-11T21:40:31.132Z,100846.00
2023-08-11T21:45:33.404Z,100794.75
2023-08-11T21:50:36.214Z,100810.66
2023-08-11T21:55:38.485Z,100857.31
2023-08-11T22:00:42.973Z,100762.03
2023-08-11T22:05:45.186Z,100832.22
2023-08-11T22:10:47.735Z,100830.59
2023-08-11T22:15:51.248Z,100830.59
2023-08-11T22:20:53.433Z,100859.09
2023-08-11T22:25:55.695Z,100830.09
2023-08-11T22:30:59.068Z,100841.31
2023-08-11T22:36:01.368Z,100850.66
2023-08-11T22:41:03.608Z,100843.56
2023-08-11T22:46:06.033Z,100835.03
2023-08-11T22:51:08.630Z,100823.53
2023-08-11T22:56:11.235Z,100846.03
2023-08-11T23:01:15.352Z,100807.13
2023-08-11T23:06:17.716Z,100825.25
2023-08-11T23:11:20.079Z,100821.16
2023-08-11T23:16:22.345Z,100817.06
2023-08-11T23:21:24.708Z,100786.09
2023-08-11T23:26:27.056Z,100832.41
2023-08-11T23:31:29.326Z,100828.84
2023-08-11T23:36:31.605Z,100809.75
2023-08-11T23:41:33.864Z,100802.06
2023-08-11T23:46:36.249Z,100783.69
2023-08-11T23:51:38.606Z,100748.09
2023-08-11T23:56:43.411Z,100764.50
